createdAt,value
2023-12-18T00:00:04.986Z,1034.30
2023-12-18T00:00:37.232Z,1034.40
2023-12-18T00:01:05.913Z,1034.40
2023-12-18T00:01:38.110Z,1034.30
2023-12-18T00:02:18.167Z,1034.30
2023-12-18T00:02:39.795Z,1034.20
2023-12-18T00:03:28.812Z,1034.40
2023-12-18T00:03:42.243Z,1034.40
2023-12-18T00:04:13.561Z,1034.40
2023-12-18T00:04:43.719Z,1034.40
2023-12-18T00:05:13.313Z,1034.40
2023-12-18T00:05:44.927Z,1034.40
2023-12-18T00:06:15.999Z,1034.40
2023-12-18T00:06:47.324Z,1034.30
2023-12-18T00:07:18.359Z,1034.30
2023-12-18T00:07:48.757Z,1034.20
2023-12-18T00:08:19.809Z,1034.20
2023-12-18T00:08:50.867Z,1034.20
2023-12-18T00:09:21.706Z,1034.20
2023-12-18T00:09:52.720Z,1034.40
2023-12-18T00:10:24.124Z,1034.40
2023-12-18T00:10:54.529Z,1034.40
2023-12-18T00:11:27.126Z,1034.30
2023-12-18T00:11:57.090Z,1034.30
2023-12-18T00:12:28.213Z,1034.20
2023-12-18T00:12:58.849Z,1034.20
2023-12-18T00:13:29.888Z,1034.30
2023-12-18T00:14:00.610Z,1034.30
2023-12-18T00:14:31.821Z,1034.20
2023-12-18T00:15:04.761Z,1034.20
2023-12-18T00:15:34.120Z,1034.10
2023-12-18T00:16:05.161Z,1034.10
2023-12-18T00:16:37.033Z,1034.10
2023-12-18T00:17:07.677Z,1034.10
2023-12-18T00:17:38.213Z,1034.00
2023-12-18T00:18:09.149Z,1034.00
2023-12-18T00:18:39.735Z,1034.20
2023-12-18T00:19:11.803Z,1034.20
2023-12-18T00:19:41.860Z,1034.00
2023-12-18T00:20:13.705Z,1034.00
2023-12-18T00:20:44.275Z,1034.00
2023-12-18T00:21:15.588Z,1034.00
2023-12-18T00:21:46.197Z,1034.20
2023-12-18T00:22:17.372Z,1034.20
2023-12-18T00:22:48.045Z,1033.90
2023-12-18T00:23:19.513Z,1033.90
2023-12-18T00:23:49.592Z,1034.00
2023-12-18T00:24:21.849Z,1034.00
2023-12-18T00:24:51.921Z,1034.20
2023-12-18T00:25:24.455Z,1034.20
2023-12-18T00:25:53.627Z,1034.00
2023-12-18T00:26:26.245Z,1034.00
2023-12-18T00:26:56.094Z,1034.00
2023-12-18T00:27:27.716Z,1034.00
2023-12-18T00:27:59.289Z,1034.00
2023-12-18T00:28:28.837Z,1034.10
2023-12-18T00:29:00.046Z,1034.10
2023-12-18T00:29:31.216Z,1034.10
2023-12-18T00:30:21.367Z,1034.10
2023-12-18T00:30:33.506Z,1034.00
2023-12-18T00:31:04.020Z,1034.00
2023-12-18T00:31:35.783Z,1034.10
2023-12-18T00:32:07.679Z,1034.10
2023-12-18T00:32:38.585Z,1034.10
2023-12-18T00:33:08.807Z,1034.10
2023-12-18T00:33:39.818Z,1033.90
2023-12-18T00:34:10.338Z,1033.90
2023-12-18T00:34:42.326Z,1033.80
2023-12-18T00:35:11.961Z,1033.80
2023-12-18T00:35:42.906Z,1033.90
2023-12-18T00:36:13.864Z,1033.90
2023-12-18T00:36:46.938Z,1033.80
2023-12-18T00:37:16.146Z,1033.80
2023-12-18T00:37:47.824Z,1033.90
2023-12-18T00:38:18.757Z,1033.90
2023-12-18T00:38:49.472Z,1033.90
2023-12-18T00:39:20.445Z,1033.90
2023-12-18T00:39:51.106Z,1033.90
2023-12-18T00:40:23.060Z,1033.90
2023-12-18T00:40:53.492Z,1033.90
2023-12-18T00:41:23.824Z,1033.90
2023-12-18T00:41:54.787Z,1033.90
2023-12-18T00:42:25.934Z,1033.80
2023-12-18T00:42:58.577Z,1033.80
2023-12-18T00:43:28.942Z,1033.90
2023-12-18T00:43:58.817Z,1033.90
2023-12-18T00:44:30.123Z,1033.80
2023-12-18T00:45:02.169Z,1033.80
2023-12-18T00:45:32.027Z,1033.80
2023-12-18T00:46:02.762Z,1033.80
2023-12-18T00:46:33.952Z,1034.00
2023-12-18T00:47:04.708Z,1034.00
2023-12-18T00:47:36.231Z,1033.59
2023-12-18T00:48:24.225Z,1033.69
2023-12-18T00:48:38.448Z,1033.69
2023-12-18T00:49:08.743Z,1033.69
2023-12-18T00:49:40.116Z,1033.69
2023-12-18T00:50:12.241Z,1033.69
2023-12-18T00:50:41.722Z,1033.80
2023-12-18T00:51:12.844Z,1033.80
2023-12-18T00:51:43.818Z,1033.80
2023-12-18T00:52:15.273Z,1033.80
2023-12-18T00:52:45.998Z,1033.69
2023-12-18T00:53:17.404Z,1033.69
2023-12-18T00:53:48.080Z,1033.80
2023-12-18T00:54:27.973Z,1033.69
2023-12-18T00:54:49.708Z,1033.69
2023-12-18T00:55:21.111Z,1033.69
2023-12-18T00:55:52.122Z,1033.69
2023-12-18T00:56:22.993Z,1033.69
2023-12-18T00:56:54.797Z,1033.90
2023-12-18T00:57:27.738Z,1033.80
2023-12-18T00:58:27.848Z,1033.90
2023-12-18T00:58:58.931Z,1033.90
2023-12-18T00:59:29.137Z,1033.80
2023-12-18T00:59:59.943Z,1033.80
2023-12-18T01:00:32.944Z,1034.00
2023-12-18T01:01:02.715Z,1034.00
2023-12-18T01:01:32.753Z,1033.69
2023-12-18T01:02:03.845Z,1033.69
2023-12-18T01:02:34.669Z,1034.00
2023-12-18T01:03:06.512Z,1034.00
2023-12-18T01:03:37.787Z,1033.59
2023-12-18T01:04:08.156Z,1033.59
2023-12-18T01:04:39.225Z,1033.80
2023-12-18T01:05:12.028Z,1033.80
2023-12-18T01:05:42.925Z,1033.59
2023-12-18T01:06:11.867Z,1033.59
2023-12-18T01:06:43.528Z,1033.69
2023-12-18T01:07:16.232Z,1033.69
2023-12-18T01:07:46.213Z,1033.59
2023-12-18T01:08:21.326Z,1033.59
2023-12-18T01:08:51.447Z,1033.80
2023-12-18T01:09:21.112Z,1033.80
2023-12-18T01:09:59.740Z,1033.69
2023-12-18T01:11:00.147Z,1033.69
2023-12-18T01:11:24.151Z,1033.39
2023-12-18T01:11:53.152Z,1033.59
2023-12-18T01:12:25.899Z,1033.39
2023-12-18T01:12:58.766Z,1033.39
2023-12-18T01:13:28.591Z,1033.49
2023-12-18T01:14:01.041Z,1033.49
2023-12-18T01:14:31.448Z,1033.39
2023-12-18T01:15:02.847Z,1033.39
2023-12-18T01:15:35.937Z,1033.49
2023-12-18T01:16:02.810Z,1033.49
2023-12-18T01:16:33.837Z,1033.49
2023-12-18T01:17:05.448Z,1033.49
2023-12-18T01:17:36.478Z,1033.59
2023-12-18T01:18:08.132Z,1033.59
2023-12-18T01:18:38.100Z,1033.39
2023-12-18T01:19:10.184Z,1033.39
2023-12-18T01:19:38.750Z,1033.69
2023-12-18T01:20:12.124Z,1033.69
2023-12-18T01:20:42.872Z,1033.69
2023-12-18T01:21:13.220Z,1033.69
2023-12-18T01:21:46.008Z,1033.39
2023-12-18T01:22:15.175Z,1033.39
2023-12-18T01:22:49.615Z,1033.59
2023-12-18T01:23:16.961Z,1033.59
2023-12-18T01:23:49.981Z,1033.59
2023-12-18T01:24:19.458Z,1033.59
2023-12-18T01:24:50.253Z,1033.49
2023-12-18T01:25:22.200Z,1033.49
2023-12-18T01:25:52.652Z,1033.29
2023-12-18T01:26:23.436Z,1033.29
2023-12-18T01:26:54.705Z,1033.39
2023-12-18T01:27:25.520Z,1033.39
2023-12-18T01:27:56.765Z,1033.29
2023-12-18T01:28:57.990Z,1033.39
2023-12-18T01:30:01.409Z,1033.39
2023-12-18T01:30:33.475Z,1033.39
2023-12-18T01:31:03.820Z,1033.39
2023-12-18T01:31:33.378Z,1033.49
2023-12-18T01:32:03.071Z,1033.49
2023-12-18T01:32:35.952Z,1033.59
2023-12-18T01:33:06.726Z,1033.59
2023-12-18T01:33:38.141Z,1033.29
2023-12-18T01:34:06.818Z,1033.29
2023-12-18T01:34:40.608Z,1033.39
2023-12-18T01:35:11.518Z,1033.39
2023-12-18T01:35:40.840Z,1033.69
2023-12-18T01:36:12.363Z,1033.69
2023-12-18T01:36:43.997Z,1033.49
2023-12-18T01:37:14.957Z,1033.49
2023-12-18T01:37:45.300Z,1033.59
2023-12-18T01:38:48.046Z,1033.49
2023-12-18T01:39:19.400Z,1033.49
2023-12-18T01:39:50.315Z,1033.59
2023-12-18T01:40:20.540Z,1033.59
2023-12-18T01:40:50.732Z,1033.59
2023-12-18T01:41:21.878Z,1033.59
2023-12-18T01:41:53.649Z,1033.39
2023-12-18T01:42:24.617Z,1033.39
2023-12-18T01:42:54.790Z,1033.59
2023-12-18T01:43:26.565Z,1033.29
2023-12-18T01:43:57.462Z,1033.29
2023-12-18T01:44:29.024Z,1033.39
2023-12-18T01:45:01.695Z,1033.39
2023-12-18T01:45:32.271Z,1033.59
2023-12-18T01:46:02.732Z,1033.59
2023-12-18T01:46:35.266Z,1033.49
2023-12-18T01:47:34.132Z,1033.39
2023-12-18T01:48:05.164Z,1033.39
2023-12-18T01:48:36.335Z,1033.19
2023-12-18T01:49:07.518Z,1033.19
2023-12-18T01:49:38.781Z,1033.49
2023-12-18T01:50:14.625Z,1033.49
2023-12-18T01:50:40.925Z,1033.49
2023-12-18T01:51:18.323Z,1033.49
2023-12-18T01:51:42.244Z,1033.29
2023-12-18T01:52:16.874Z,1033.29
2023-12-18T01:52:42.635Z,1033.39
2023-12-18T01:53:15.236Z,1033.39
2023-12-18T01:53:46.809Z,1033.08
2023-12-18T01:54:17.243Z,1033.08
2023-12-18T01:54:49.088Z,1033.19
2023-12-18T01:55:20.604Z,1033.19
2023-12-18T01:55:49.522Z,1033.19
2023-12-18T01:56:20.529Z,1033.19
2023-12-18T01:56:51.948Z,1033.39
2023-12-18T01:57:22.814Z,1033.39
2023-12-18T01:57:53.794Z,1033.39
2023-12-18T01:58:26.206Z,1033.39
2023-12-18T01:58:56.118Z,1033.39
2023-12-18T01:59:27.262Z,1033.29
2023-12-18T02:00:16.550Z,1033.29
2023-12-18T02:00:31.987Z,1033.29
2023-12-18T02:01:01.496Z,1033.29
2023-12-18T02:01:30.692Z,1033.19
2023-12-18T02:02:00.626Z,1033.19
2023-12-18T02:02:33.457Z,1033.49
2023-12-18T02:03:03.418Z,1033.49
2023-12-18T02:03:35.331Z,1033.29
2023-12-18T02:04:06.242Z,1033.29
2023-12-18T02:04:37.382Z,1033.19
2023-12-18T02:05:11.729Z,1033.19
2023-12-18T02:05:39.364Z,1033.29
2023-12-18T02:06:11.335Z,1033.29
2023-12-18T02:06:42.232Z,1033.39
2023-12-18T02:07:12.501Z,1033.39
2023-12-18T02:07:43.883Z,1033.39
2023-12-18T02:08:14.435Z,1033.39
2023-12-18T02:09:02.546Z,1033.49
2023-12-18T02:09:16.391Z,1033.49
2023-12-18T02:09:45.601Z,1033.19
2023-12-18T02:10:19.732Z,1033.19
2023-12-18T02:10:49.078Z,1033.49
2023-12-18T02:11:20.264Z,1033.49
2023-12-18T02:11:51.940Z,1033.49
2023-12-18T02:12:22.074Z,1033.49
2023-12-18T02:12:54.141Z,1033.39
2023-12-18T02:13:25.571Z,1033.39
2023-12-18T02:13:54.765Z,1033.29
2023-12-18T02:14:26.540Z,1033.29
2023-12-18T02:14:57.238Z,1033.29
2023-12-18T02:15:28.759Z,1033.19
2023-12-18T02:15:58.870Z,1033.19
2023-12-18T02:16:30.089Z,1033.29
2023-12-18T02:17:01.056Z,1033.29
2023-12-18T02:17:33.959Z,1033.19
2023-12-18T02:18:04.449Z,1033.19
2023-12-18T02:18:34.972Z,1033.29
2023-12-18T02:19:05.830Z,1033.29
2023-12-18T02:19:36.230Z,1033.08
2023-12-18T02:20:08.920Z,1033.08
2023-12-18T02:20:38.529Z,1033.08
2023-12-18T02:21:08.936Z,1033.08
2023-12-18T02:21:40.380Z,1033.19
2023-12-18T02:22:12.445Z,1033.19
2023-12-18T02:22:42.908Z,1033.19
2023-12-18T02:23:13.768Z,1033.19
2023-12-18T02:23:45.205Z,1033.08
2023-12-18T02:24:16.242Z,1033.08
2023-12-18T02:24:46.373Z,1033.08
2023-12-18T02:25:17.910Z,1033.08
2023-12-18T02:25:50.081Z,1033.19
2023-12-18T02:26:19.424Z,1033.19
2023-12-18T02:26:50.762Z,1033.19
2023-12-18T02:27:21.553Z,1033.19
2023-12-18T02:27:52.063Z,1033.08
2023-12-18T02:28:23.426Z,1033.08
2023-12-18T02:28:53.703Z,1033.08
2023-12-18T02:29:23.894Z,1033.08
2023-12-18T02:29:56.233Z,1032.98
2023-12-18T02:30:28.480Z,1033.08
2023-12-18T02:30:58.503Z,1033.08
2023-12-18T02:31:28.506Z,1033.08
2023-12-18T02:32:00.950Z,1033.08
2023-12-18T02:32:32.025Z,1032.98
2023-12-18T02:33:02.865Z,1032.98
2023-12-18T02:33:34.659Z,1032.91
2023-12-18T02:34:05.256Z,1032.91
2023-12-18T02:34:36.333Z,1032.98
2023-12-18T02:35:10.789Z,1032.98
2023-12-18T02:35:36.622Z,1033.19
2023-12-18T02:36:07.361Z,1033.19
2023-12-18T02:36:39.843Z,1033.29
2023-12-18T02:37:09.978Z,1033.29
2023-12-18T02:37:42.113Z,1033.08
2023-12-18T02:38:12.675Z,1033.08
2023-12-18T02:38:44.081Z,1033.08
2023-12-18T02:39:14.817Z,1033.08
2023-12-18T02:39:45.728Z,1032.98
2023-12-18T02:40:18.384Z,1032.98
2023-12-18T02:40:47.256Z,1033.08
2023-12-18T02:41:18.291Z,1033.08
2023-12-18T02:41:49.925Z,1033.08
2023-12-18T02:42:20.193Z,1033.08
2023-12-18T02:42:51.773Z,1033.08
2023-12-18T02:43:22.903Z,1033.08
2023-12-18T02:43:54.095Z,1032.98
2023-12-18T02:44:24.838Z,1032.98
2023-12-18T02:44:55.370Z,1033.08
2023-12-18T02:45:58.059Z,1033.08
2023-12-18T02:46:28.794Z,1033.08
2023-12-18T02:46:59.756Z,1033.08
2023-12-18T02:47:30.458Z,1033.08
2023-12-18T02:48:00.749Z,1033.08
2023-12-18T02:48:31.144Z,1032.98
2023-12-18T02:49:03.206Z,1032.98
2023-12-18T02:49:33.971Z,1033.08
2023-12-18T02:50:22.638Z,1033.08
2023-12-18T02:50:35.567Z,1033.08
2023-12-18T02:51:05.893Z,1033.08
2023-12-18T02:51:36.858Z,1032.98
2023-12-18T02:52:23.673Z,1032.98
2023-12-18T02:52:38.629Z,1033.08
2023-12-18T02:53:09.846Z,1033.08
2023-12-18T02:53:42.018Z,1033.08
2023-12-18T02:54:12.960Z,1033.08
2023-12-18T02:54:43.588Z,1033.08
2023-12-18T02:55:14.104Z,1033.08
2023-12-18T02:55:44.569Z,1033.08
2023-12-18T02:56:16.182Z,1033.08
2023-12-18T02:56:47.122Z,1032.91
2023-12-18T02:57:18.120Z,1032.91
2023-12-18T02:57:49.025Z,1032.98
2023-12-18T02:58:20.594Z,1032.98
2023-12-18T02:59:08.049Z,1032.91
2023-12-18T02:59:22.333Z,1032.91
2023-12-18T03:00:10.096Z,1032.98
2023-12-18T03:00:25.562Z,1032.98
2023-12-18T03:00:55.066Z,1032.98
2023-12-18T03:01:26.367Z,1032.81
2023-12-18T03:01:56.484Z,1032.81
2023-12-18T03:02:28.127Z,1032.98
2023-12-18T03:02:59.558Z,1032.98
2023-12-18T03:03:29.796Z,1032.91
2023-12-18T03:04:00.834Z,1032.91
2023-12-18T03:04:31.958Z,1032.81
2023-12-18T03:05:05.656Z,1032.81
2023-12-18T03:05:34.809Z,1032.98
2023-12-18T03:06:05.350Z,1032.98
2023-12-18T03:06:36.708Z,1032.91
2023-12-18T03:07:06.354Z,1032.91
2023-12-18T03:07:39.062Z,1033.08
2023-12-18T03:08:08.978Z,1033.08
2023-12-18T03:08:40.253Z,1032.91
2023-12-18T03:09:12.065Z,1032.91
2023-12-18T03:09:43.337Z,1032.98
2023-12-18T03:10:13.743Z,1032.98
2023-12-18T03:10:43.564Z,1032.81
2023-12-18T03:11:26.588Z,1032.81
2023-12-18T03:11:47.444Z,1032.71
2023-12-18T03:12:18.069Z,1032.71
2023-12-18T03:12:47.783Z,1032.71
2023-12-18T03:13:49.924Z,1032.91
2023-12-18T03:14:21.886Z,1032.91
2023-12-18T03:14:52.942Z,1032.98
2023-12-18T03:15:23.869Z,1032.98
2023-12-18T03:15:54.633Z,1032.81
2023-12-18T03:16:26.104Z,1032.81
2023-12-18T03:16:56.075Z,1032.81
2023-12-18T03:17:26.689Z,1032.98
2023-12-18T03:17:58.007Z,1032.98
2023-12-18T03:18:29.797Z,1032.81
2023-12-18T03:19:31.215Z,1032.81
2023-12-18T03:20:02.968Z,1032.81
2023-12-18T03:20:33.865Z,1032.81
2023-12-18T03:21:05.494Z,1032.81
2023-12-18T03:21:34.850Z,1033.08
2023-12-18T03:22:06.174Z,1033.08
2023-12-18T03:22:37.069Z,1033.08
2023-12-18T03:23:08.643Z,1033.08
2023-12-18T03:23:39.384Z,1032.91
2023-12-18T03:24:11.303Z,1032.91
2023-12-18T03:24:40.921Z,1032.98
2023-12-18T03:25:13.302Z,1032.98
2023-12-18T03:25:43.173Z,1032.98
2023-12-18T03:26:15.178Z,1032.98
2023-12-18T03:26:45.137Z,1032.91
2023-12-18T03:27:17.503Z,1032.91
2023-12-18T03:27:46.895Z,1032.91
2023-12-18T03:28:18.402Z,1032.91
2023-12-18T03:28:48.825Z,1032.71
2023-12-18T03:29:20.175Z,1032.71
2023-12-18T03:29:51.579Z,1032.71
2023-12-18T03:30:24.007Z,1032.71
2023-12-18T03:30:53.579Z,1032.71
2023-12-18T03:31:25.123Z,1032.71
2023-12-18T03:32:27.207Z,1032.81
2023-12-18T03:32:57.838Z,1032.81
2023-12-18T03:33:29.404Z,1032.81
2023-12-18T03:34:00.313Z,1032.81
2023-12-18T03:34:30.566Z,1032.71
2023-12-18T03:35:02.021Z,1032.71
2023-12-18T03:35:35.442Z,1032.81
2023-12-18T03:36:06.421Z,1032.81
2023-12-18T03:36:34.848Z,1032.91
2023-12-18T03:37:36.405Z,1032.81
2023-12-18T03:38:07.604Z,1032.81
2023-12-18T03:38:38.538Z,1032.81
2023-12-18T03:39:10.724Z,1032.81
2023-12-18T03:39:40.718Z,1032.81
2023-12-18T03:40:31.539Z,1032.81
2023-12-18T03:40:43.180Z,1032.81
2023-12-18T03:41:14.522Z,1032.81
2023-12-18T03:41:44.828Z,1032.71
2023-12-18T03:42:15.888Z,1032.71
2023-12-18T03:42:46.701Z,1032.91
2023-12-18T03:43:19.253Z,1032.91
2023-12-18T03:43:48.240Z,1032.81
2023-12-18T03:44:19.215Z,1032.81
2023-12-18T03:44:50.312Z,1032.91
2023-12-18T03:45:22.431Z,1032.91
2023-12-18T03:45:53.381Z,1032.71
2023-12-18T03:46:23.654Z,1032.71
2023-12-18T03:46:55.075Z,1032.91
2023-12-18T03:47:26.237Z,1032.91
2023-12-18T03:47:57.937Z,1032.91
2023-12-18T03:48:27.969Z,1032.81
2023-12-18T03:49:16.077Z,1032.81
2023-12-18T03:49:29.591Z,1032.61
2023-12-18T03:50:15.873Z,1032.61
2023-12-18T03:50:31.898Z,1032.81
2023-12-18T03:51:03.881Z,1032.81
2023-12-18T03:51:33.606Z,1032.71
2023-12-18T03:52:05.972Z,1032.71
2023-12-18T03:52:36.279Z,1032.91
2023-12-18T03:53:07.290Z,1032.91
2023-12-18T03:53:36.582Z,1032.61
2023-12-18T03:54:09.182Z,1032.61
2023-12-18T03:54:39.615Z,1032.81
2023-12-18T03:55:11.180Z,1032.81
2023-12-18T03:55:41.707Z,1032.51
2023-12-18T03:56:13.093Z,1032.51
2023-12-18T03:56:43.955Z,1032.71
2023-12-18T03:57:15.049Z,1032.71
2023-12-18T03:57:45.578Z,1032.81
2023-12-18T03:58:33.700Z,1032.51
2023-12-18T03:58:48.454Z,1032.51
2023-12-18T03:59:18.577Z,1032.51
2023-12-18T03:59:49.561Z,1032.61
2023-12-18T04:00:52.942Z,1032.81
2023-12-18T04:01:22.921Z,1032.81
2023-12-18T04:01:52.889Z,1032.71
2023-12-18T04:02:25.256Z,1032.41
2023-12-18T04:02:55.841Z,1032.41
2023-12-18T04:03:27.631Z,1032.71
2023-12-18T04:03:57.065Z,1032.71
2023-12-18T04:04:29.203Z,1032.51
2023-12-18T04:04:59.754Z,1032.51
2023-12-18T04:05:31.924Z,1032.61
2023-12-18T04:06:01.741Z,1032.61
2023-12-18T04:06:33.256Z,1032.61
2023-12-18T04:07:21.531Z,1032.61
2023-12-18T04:07:34.784Z,1032.71
2023-12-18T04:08:07.227Z,1032.71
2023-12-18T04:08:35.906Z,1032.71
2023-12-18T04:09:38.285Z,1032.61
2023-12-18T04:10:10.524Z,1032.61
2023-12-18T04:10:42.010Z,1032.71
2023-12-18T04:11:11.877Z,1032.71
2023-12-18T04:11:42.920Z,1032.81
2023-12-18T04:12:13.951Z,1032.81
2023-12-18T04:12:43.773Z,1032.81
2023-12-18T04:13:15.873Z,1032.81
2023-12-18T04:13:46.494Z,1032.81
2023-12-18T04:14:17.525Z,1032.81
2023-12-18T04:14:48.887Z,1032.71
2023-12-18T04:15:37.541Z,1032.81
2023-12-18T04:15:51.407Z,1032.81
2023-12-18T04:16:21.986Z,1032.81
2023-12-18T04:16:53.401Z,1032.81
2023-12-18T04:17:24.045Z,1032.81
2023-12-18T04:17:55.171Z,1032.81
2023-12-18T04:18:26.557Z,1032.98
2023-12-18T04:18:56.936Z,1032.98
2023-12-18T04:19:27.913Z,1032.91
2023-12-18T04:19:59.475Z,1032.91
2023-12-18T04:20:31.134Z,1032.71
2023-12-18T04:20:59.869Z,1032.71
2023-12-18T04:21:31.232Z,1032.81
2023-12-18T04:22:02.848Z,1032.81
2023-12-18T04:23:05.804Z,1032.81
2023-12-18T04:23:37.401Z,1032.81
2023-12-18T04:24:07.134Z,1032.81
2023-12-18T04:24:38.334Z,1032.71
2023-12-18T04:25:27.620Z,1032.71
2023-12-18T04:25:40.473Z,1032.71
2023-12-18T04:26:10.840Z,1032.71
2023-12-18T04:26:42.630Z,1032.81
2023-12-18T04:27:12.399Z,1032.81
2023-12-18T04:27:45.287Z,1032.61
2023-12-18T04:28:14.969Z,1032.61
2023-12-18T04:29:17.027Z,1032.71
2023-12-18T04:29:47.901Z,1032.61
2023-12-18T04:30:20.377Z,1032.61
2023-12-18T04:31:07.033Z,1032.61
2023-12-18T04:31:20.820Z,1032.61
2023-12-18T04:32:03.839Z,1032.71
2023-12-18T04:32:24.607Z,1032.71
2023-12-18T04:32:55.024Z,1032.51
2023-12-18T04:33:24.653Z,1032.41
2023-12-18T04:33:56.112Z,1032.41
2023-12-18T04:34:27.590Z,1032.81
2023-12-18T04:34:57.791Z,1032.81
2023-12-18T04:35:30.897Z,1032.71
2023-12-18T04:35:59.758Z,1032.71
2023-12-18T04:36:30.808Z,1032.71
2023-12-18T04:37:32.632Z,1032.31
2023-12-18T04:38:11.166Z,1032.31
2023-12-18T04:38:34.899Z,1032.71
2023-12-18T04:39:05.670Z,1032.71
2023-12-18T04:39:54.346Z,1032.41
2023-12-18T04:40:08.637Z,1032.41
2023-12-18T04:40:39.654Z,1032.61
2023-12-18T04:41:09.700Z,1032.61
2023-12-18T04:41:41.354Z,1032.71
2023-12-18T04:42:11.517Z,1032.71
2023-12-18T04:42:59.918Z,1032.61
2023-12-18T04:43:14.210Z,1032.61
2023-12-18T04:43:45.940Z,1032.31
2023-12-18T04:44:15.584Z,1032.31
2023-12-18T04:44:46.585Z,1032.61
2023-12-18T04:45:18.880Z,1032.61
2023-12-18T04:45:49.113Z,1032.51
2023-12-18T04:46:19.593Z,1032.51
2023-12-18T04:46:50.901Z,1032.31
2023-12-18T04:47:22.217Z,1032.31
2023-12-18T04:47:52.788Z,1032.41
2023-12-18T04:48:24.781Z,1032.41
2023-12-18T04:48:55.244Z,1032.61
2023-12-18T04:49:43.052Z,1032.61
2023-12-18T04:49:57.039Z,1032.61
2023-12-18T04:50:28.591Z,1032.41
2023-12-18T04:50:58.449Z,1032.41
2023-12-18T04:51:46.737Z,1032.51
2023-12-18T04:52:00.815Z,1032.51
2023-12-18T04:52:31.916Z,1032.41
2023-12-18T04:53:03.218Z,1032.41
2023-12-18T04:53:34.650Z,1032.51
2023-12-18T04:54:04.937Z,1032.51
2023-12-18T04:54:35.706Z,1032.51
2023-12-18T04:55:07.974Z,1032.51
2023-12-18T04:55:36.761Z,1032.41
2023-12-18T04:56:09.095Z,1032.41
2023-12-18T04:56:39.230Z,1032.51
2023-12-18T04:57:10.453Z,1032.51
2023-12-18T04:57:42.194Z,1032.51
2023-12-18T04:58:12.140Z,1032.51
2023-12-18T04:58:44.107Z,1032.61
2023-12-18T04:59:29.384Z,1032.41
2023-12-18T04:59:46.254Z,1032.41
2023-12-18T05:00:19.862Z,1032.41
2023-12-18T05:01:05.307Z,1032.61
2023-12-18T05:01:18.524Z,1032.61
2023-12-18T05:01:50.059Z,1032.61
2023-12-18T05:02:19.810Z,1032.61
2023-12-18T05:02:50.853Z,1032.51
2023-12-18T05:03:21.877Z,1032.51
2023-12-18T05:03:53.049Z,1032.61
2023-12-18T05:04:24.375Z,1032.61
2023-12-18T05:04:54.705Z,1032.61
2023-12-18T05:05:26.050Z,1032.61
2023-12-18T05:05:56.784Z,1032.61
2023-12-18T05:06:27.643Z,1032.41
2023-12-18T05:06:58.802Z,1032.41
2023-12-18T05:07:29.791Z,1032.61
2023-12-18T05:08:00.663Z,1032.61
2023-12-18T05:08:31.602Z,1032.41
2023-12-18T05:09:04.239Z,1032.41
2023-12-18T05:09:33.991Z,1032.41
2023-12-18T05:10:22.294Z,1032.41
2023-12-18T05:10:35.903Z,1032.71
2023-12-18T05:11:06.679Z,1032.71
2023-12-18T05:11:37.620Z,1032.61
2023-12-18T05:12:11.578Z,1032.61
2023-12-18T05:12:39.807Z,1032.71
2023-12-18T05:13:11.440Z,1032.71
2023-12-18T05:13:42.336Z,1032.61
2023-12-18T05:14:13.042Z,1032.61
2023-12-18T05:14:43.791Z,1032.71
2023-12-18T05:15:14.909Z,1032.71
2023-12-18T05:15:46.179Z,1032.71
2023-12-18T05:16:47.801Z,1032.51
2023-12-18T05:17:18.652Z,1032.51
2023-12-18T05:17:49.635Z,1032.71
2023-12-18T05:18:21.225Z,1032.71
2023-12-18T05:19:08.910Z,1032.71
2023-12-18T05:19:23.286Z,1032.71
2023-12-18T05:19:54.214Z,1032.71
2023-12-18T05:20:26.301Z,1032.61
2023-12-18T05:20:56.719Z,1032.61
2023-12-18T05:21:27.079Z,1032.51
2023-12-18T05:21:58.120Z,1032.51
2023-12-18T05:22:29.455Z,1032.51
2023-12-18T05:23:00.109Z,1032.51
2023-12-18T05:23:31.445Z,1032.71
2023-12-18T05:24:02.830Z,1032.71
2023-12-18T05:24:34.528Z,1032.41
2023-12-18T05:25:06.142Z,1032.41
2023-12-18T05:25:35.535Z,1032.61
2023-12-18T05:26:06.789Z,1032.61
2023-12-18T05:26:37.950Z,1032.51
2023-12-18T05:27:09.444Z,1032.51
2023-12-18T05:27:39.828Z,1032.51
2023-12-18T05:28:10.834Z,1032.51
2023-12-18T05:28:41.780Z,1032.41
2023-12-18T05:29:13.458Z,1032.41
2023-12-18T05:29:45.036Z,1032.41
2023-12-18T05:30:16.258Z,1032.41
2023-12-18T05:30:46.061Z,1032.31
2023-12-18T05:31:16.955Z,1032.31
2023-12-18T05:31:49.011Z,1032.51
2023-12-18T05:32:19.326Z,1032.51
2023-12-18T05:32:50.185Z,1032.31
2023-12-18T05:33:21.022Z,1032.31
2023-12-18T05:33:52.096Z,1032.31
2023-12-18T05:34:23.177Z,1032.31
2023-12-18T05:34:53.616Z,1032.41
2023-12-18T05:35:25.636Z,1032.41
2023-12-18T05:35:56.638Z,1032.41
2023-12-18T05:36:26.487Z,1032.51
2023-12-18T05:36:57.568Z,1032.51
2023-12-18T05:37:28.887Z,1032.61
2023-12-18T05:37:59.624Z,1032.61
2023-12-18T05:38:31.238Z,1032.31
2023-12-18T05:39:01.634Z,1032.31
2023-12-18T05:39:32.776Z,1032.41
2023-12-18T05:40:10.486Z,1032.41
2023-12-18T05:40:37.114Z,1032.20
2023-12-18T05:41:06.021Z,1032.20
2023-12-18T05:41:36.867Z,1032.51
2023-12-18T05:42:09.450Z,1032.51
2023-12-18T05:42:39.700Z,1032.31
2023-12-18T05:43:13.201Z,1032.31
2023-12-18T05:43:41.023Z,1032.51
2023-12-18T05:44:11.788Z,1032.51
2023-12-18T05:44:43.457Z,1032.41
2023-12-18T05:45:14.706Z,1032.41
2023-12-18T05:45:45.464Z,1032.41
2023-12-18T05:46:16.317Z,1032.41
2023-12-18T05:46:47.483Z,1032.51
2023-12-18T05:47:17.196Z,1032.51
2023-12-18T05:47:48.946Z,1032.20
2023-12-18T05:48:22.678Z,1032.20
2023-12-18T05:48:51.226Z,1032.31
2023-12-18T05:49:22.049Z,1032.31
2023-12-18T05:49:54.000Z,1032.31
2023-12-18T05:50:40.688Z,1032.20
2023-12-18T05:50:55.156Z,1032.20
2023-12-18T05:51:27.124Z,1032.20
2023-12-18T05:51:56.574Z,1032.20
2023-12-18T05:52:27.802Z,1032.31
2023-12-18T05:52:58.376Z,1032.31
2023-12-18T05:53:30.511Z,1032.31
2023-12-18T05:54:01.234Z,1032.31
2023-12-18T05:54:32.001Z,1032.31
2023-12-18T05:55:04.023Z,1032.31
2023-12-18T05:55:34.148Z,1032.41
2023-12-18T05:56:05.375Z,1032.41
2023-12-18T05:56:36.100Z,1032.61
2023-12-18T05:57:06.601Z,1032.61
2023-12-18T05:57:37.888Z,1032.31
2023-12-18T05:58:09.984Z,1032.31
2023-12-18T05:58:39.467Z,1032.31
2023-12-18T05:59:11.452Z,1032.31
2023-12-18T05:59:41.827Z,1032.41
2023-12-18T06:00:33.781Z,1032.61
2023-12-18T06:00:43.979Z,1032.61
2023-12-18T06:01:15.471Z,1032.61
2023-12-18T06:01:46.214Z,1032.51
2023-12-18T06:02:17.312Z,1032.51
2023-12-18T06:02:48.112Z,1032.41
2023-12-18T06:03:18.678Z,1032.41
2023-12-18T06:03:51.244Z,1032.61
2023-12-18T06:04:20.655Z,1032.61
2023-12-18T06:04:52.145Z,1032.71
2023-12-18T06:05:22.926Z,1032.71
2023-12-18T06:05:54.022Z,1032.41
2023-12-18T06:06:27.996Z,1032.31
2023-12-18T06:06:56.730Z,1032.31
2023-12-18T06:07:27.020Z,1032.61
2023-12-18T06:07:57.575Z,1032.61
2023-12-18T06:08:45.933Z,1032.31
2023-12-18T06:09:00.094Z,1032.31
2023-12-18T06:09:31.044Z,1032.51
2023-12-18T06:10:02.619Z,1032.51
2023-12-18T06:10:32.521Z,1032.41
2023-12-18T06:11:04.186Z,1032.41
2023-12-18T06:11:34.743Z,1032.41
2023-12-18T06:12:06.768Z,1032.41
2023-12-18T06:12:36.911Z,1032.51
2023-12-18T06:13:08.339Z,1032.51
2023-12-18T06:13:39.132Z,1032.31
2023-12-18T06:14:09.780Z,1032.31
2023-12-18T06:14:43.144Z,1032.31
2023-12-18T06:15:30.054Z,1032.20
2023-12-18T06:15:43.135Z,1032.20
2023-12-18T06:16:14.719Z,1032.20
2023-12-18T06:16:47.856Z,1032.10
2023-12-18T06:17:16.472Z,1032.10
2023-12-18T06:17:47.401Z,1032.31
2023-12-18T06:18:18.145Z,1032.31
2023-12-18T06:18:49.049Z,1032.31
2023-12-18T06:19:19.818Z,1032.31
2023-12-18T06:19:50.799Z,1032.41
2023-12-18T06:20:23.422Z,1032.41
2023-12-18T06:20:52.634Z,1032.41
2023-12-18T06:21:24.072Z,1032.41
2023-12-18T06:21:55.226Z,1032.31
2023-12-18T06:22:26.638Z,1032.41
2023-12-18T06:22:56.704Z,1032.41
2023-12-18T06:23:28.136Z,1032.41